createdAt,value
2018-07-04T00:02:36.450Z,100742.36
2018-07-04T00:05:30.309Z,100740.97
2018-07-04T00:08:23.929Z,100739.95
2018-07-04T00:11:17.432Z,100737.92
2018-07-04T00:14:11.062Z,100735.27
2018-07-04T00:17:04.490Z,100736.92
2018-07-04T00:19:58.104Z,100738.89
2018-07-04T00:22:51.701Z,100731.48
2018-07-04T00:25:45.527Z,100748.87
2018-07-04T00:28:39.452Z,100745.71
2018-07-04T00:31:33.465Z,100746.89
2018-07-04T00:34:27.222Z,100742.92
2018-07-04T00:37:20.890Z,100750.62
2018-07-04T00:40:14.623Z,100750.56
2018-07-04T00:43:08.152Z,100744.55
2018-07-04T00:46:01.578Z,100743.02
2018-07-04T00:48:55.003Z,100746.52
2018-07-04T00:51:48.597Z,100730.11
2018-07-04T00:54:42.183Z,100738.09
2018-07-04T00:57:35.849Z,100734.91
2018-07-04T01:00:29.639Z,100733.16
2018-07-04T01:03:17.472Z,100724.09
2018-07-04T01:06:10.974Z,100714.05
2018-07-04T01:09:05.114Z,100712.88
2018-07-04T01:11:58.706Z,100715.75
2018-07-04T01:14:52.271Z,100713.05
2018-07-04T01:17:45.887Z,100712.73
2018-07-04T01:20:44.887Z,100708.97
2018-07-04T01:23:38.366Z,100704.47
2018-07-04T01:26:32.321Z,100700.36
2018-07-04T01:29:26.371Z,100701.69
2018-07-04T01:32:19.789Z,100701.00
2018-07-04T01:35:07.772Z,100707.10
2018-07-04T01:38:02.956Z,100711.50
2018-07-04T01:40:56.523Z,100715.59
2018-07-04T01:43:49.984Z,100693.64
2018-07-04T01:46:43.588Z,100715.20
2018-07-04T01:49:37.119Z,100707.72
2018-07-04T01:52:30.857Z,100705.28
2018-07-04T01:55:24.497Z,100698.82
2018-07-04T01:58:18.038Z,100700.25
2018-07-04T02:01:11.674Z,100701.69
2018-07-04T02:03:59.296Z,100707.84
2018-07-04T02:06:52.755Z,100705.72
2018-07-04T02:09:47.604Z,100704.69
2018-07-04T02:12:41.494Z,100711.59
2018-07-04T02:15:35.310Z,100705.77
2018-07-04T02:18:28.770Z,100702.11
2018-07-04T02:21:22.367Z,100684.36
2018-07-04T02:24:15.953Z,100682.82
2018-07-04T02:27:03.512Z,100682.77
2018-07-04T02:29:51.011Z,100679.05
2018-07-04T02:32:44.633Z,100674.82
2018-07-04T02:35:38.294Z,100674.20
2018-07-04T02:38:31.897Z,100673.84
2018-07-04T02:41:25.510Z,100676.67
2018-07-04T02:44:19.455Z,100680.17
2018-07-04T02:47:18.387Z,100669.60
2018-07-04T02:50:12.198Z,100675.02
2018-07-04T02:53:05.879Z,100677.20
2018-07-04T02:55:59.499Z,100673.84
2018-07-04T02:58:53.324Z,100671.44
2018-07-04T03:01:47.306Z,100661.90
2018-07-04T03:04:34.887Z,100653.31
2018-07-04T03:07:28.308Z,100654.72
2018-07-04T03:10:21.879Z,100649.84
2018-07-04T03:13:15.499Z,100651.43
2018-07-04T03:16:09.397Z,100645.43
2018-07-04T03:18:57.007Z,100634.86
2018-07-04T03:21:50.449Z,100639.95
2018-07-04T03:24:44.081Z,100646.02
2018-07-04T03:27:37.557Z,100641.31
2018-07-04T03:30:25.113Z,100646.20
2018-07-04T03:33:18.673Z,100643.06
2018-07-04T03:36:12.377Z,100650.27
2018-07-04T03:39:06.869Z,100652.95
2018-07-04T03:42:00.676Z,100648.72
2018-07-04T03:44:54.465Z,100656.88
2018-07-04T03:47:48.733Z,100650.70
2018-07-04T03:50:42.270Z,100656.64
2018-07-04T03:53:37.829Z,100658.45
2018-07-04T03:56:32.078Z,100652.09
2018-07-04T03:59:25.915Z,100652.08
2018-07-04T04:02:19.722Z,100647.63
2018-07-04T04:05:13.787Z,100653.83
2018-07-04T04:08:07.581Z,100652.89
2018-07-04T04:11:01.346Z,100651.30
2018-07-04T04:13:55.044Z,100647.84
2018-07-04T04:16:49.023Z,100651.91
2018-07-04T04:19:42.960Z,100642.00
2018-07-04T04:22:36.552Z,100644.03
2018-07-04T04:25:30.283Z,100639.27
2018-07-04T04:28:24.105Z,100639.39
2018-07-04T04:31:18.047Z,100653.23
2018-07-04T04:34:11.820Z,100650.36
2018-07-04T04:37:05.604Z,100648.70
2018-07-04T04:40:06.299Z,100650.81
2018-07-04T04:43:00.021Z,100650.87
2018-07-04T04:45:53.616Z,100655.68
2018-07-04T04:48:47.490Z,100657.37
2018-07-04T04:51:41.065Z,100646.41
2018-07-04T04:54:34.746Z,100650.11
2018-07-04T04:57:28.477Z,100644.44
2018-07-04T05:00:16.407Z,100642.09
2018-07-04T05:03:10.077Z,100649.48
2018-07-04T05:06:03.949Z,100649.38
2018-07-04T05:08:57.590Z,100647.45
2018-07-04T05:11:51.687Z,100638.62
2018-07-04T05:14:45.183Z,100634.37
2018-07-04T05:21:10.832Z,100651.02
2018-07-04T05:24:04.426Z,100654.70
2018-07-04T05:26:57.952Z,100657.75
2018-07-04T05:29:55.383Z,100659.02
2018-07-04T05:32:48.965Z,100660.70
2018-07-04T05:35:42.787Z,100656.50
2018-07-04T05:38:36.521Z,100654.20
2018-07-04T05:41:30.106Z,100648.27
2018-07-04T05:44:24.006Z,100655.02
2018-07-04T05:47:18.109Z,100657.89
2018-07-04T05:50:20.039Z,100650.64
2018-07-04T05:56:20.880Z,100645.25
2018-07-04T05:59:14.678Z,100645.31
2018-07-04T06:02:08.987Z,100631.97
2018-07-04T06:05:02.889Z,100643.84
2018-07-04T06:07:56.566Z,100638.74
2018-07-04T06:10:50.109Z,100641.97
2018-07-04T06:13:37.675Z,100637.77
2018-07-04T06:16:31.313Z,100640.53
2018-07-04T06:19:24.996Z,100641.20
2018-07-04T06:22:18.487Z,100638.23
2018-07-04T06:25:12.270Z,100637.19
2018-07-04T06:28:05.890Z,100636.47
2018-07-04T06:30:59.423Z,100633.50
2018-07-04T06:33:53.098Z,100630.77
2018-07-04T06:36:46.908Z,100621.43
2018-07-04T06:39:22.607Z,100627.23
2018-07-04T06:41:52.018Z,100618.58
2018-07-04T06:44:20.921Z,100628.28
2018-07-04T06:46:52.303Z,100626.10
2018-07-04T06:49:23.488Z,100635.59
2018-07-04T06:51:52.388Z,100640.37
2018-07-04T06:54:24.612Z,100652.88
2018-07-04T06:56:53.516Z,100652.45
2018-07-04T06:59:25.176Z,100645.44
2018-07-04T07:01:54.075Z,100635.03
2018-07-04T07:04:48.582Z,100632.80
2018-07-04T07:07:42.252Z,100630.31
2018-07-04T07:10:38.360Z,100625.30
2018-07-04T07:13:31.743Z,100632.70
2018-07-04T07:16:27.305Z,100623.09
2018-07-04T07:19:20.755Z,100623.41
2018-07-04T07:22:14.364Z,100625.77
2018-07-04T07:25:08.040Z,100625.05
2018-07-04T07:28:01.649Z,100621.42
2018-07-04T07:30:55.830Z,100612.38
2018-07-04T07:33:49.560Z,100621.30
2018-07-04T07:36:43.172Z,100619.39
2018-07-04T07:39:36.677Z,100612.47
2018-07-04T07:42:34.978Z,100609.24
2018-07-04T07:45:28.498Z,100603.47
2018-07-04T07:48:22.140Z,100609.92
2018-07-04T07:51:15.794Z,100607.09
2018-07-04T07:54:10.232Z,100595.06
2018-07-04T07:57:04.683Z,100592.58
2018-07-04T07:59:52.274Z,100599.27
2018-07-04T08:02:45.896Z,100589.81
2018-07-04T08:05:39.553Z,100587.89
2018-07-04T08:08:33.173Z,100584.91
2018-07-04T08:11:26.633Z,100582.19
2018-07-04T08:14:20.173Z,100584.55
2018-07-04T08:17:13.899Z,100577.05
2018-07-04T08:20:07.747Z,100573.39
2018-07-04T08:23:02.048Z,100575.57
2018-07-04T08:25:55.571Z,100576.86
2018-07-04T08:28:49.935Z,100581.73
2018-07-04T08:31:43.693Z,100575.81
2018-07-04T08:34:38.597Z,100576.72
2018-07-04T08:37:37.296Z,100583.20
2018-07-04T08:40:32.046Z,100575.56
2018-07-04T08:43:25.729Z,100582.58
2018-07-04T08:46:20.757Z,100581.39
2018-07-04T08:49:14.433Z,100581.89
2018-07-04T08:52:08.142Z,100571.77
2018-07-04T08:55:01.668Z,100575.70
2018-07-04T08:57:55.378Z,100578.66
2018-07-04T09:00:48.966Z,100572.54
2018-07-04T09:03:42.593Z,100577.38
2018-07-04T09:06:36.905Z,100576.88
2018-07-04T09:09:30.556Z,100577.67
2018-07-04T09:12:18.090Z,100573.41
2018-07-04T09:15:05.675Z,100572.41
2018-07-04T09:17:59.172Z,100573.75
2018-07-04T09:20:52.800Z,100567.95
2018-07-04T09:23:46.309Z,100570.50
2018-07-04T09:26:39.882Z,100570.36
2018-07-04T09:29:33.603Z,100564.92
2018-07-04T09:32:32.897Z,100568.50
2018-07-04T09:35:28.317Z,100562.88
2018-07-04T09:38:26.596Z,100563.28
2018-07-04T09:41:23.108Z,100558.11
2018-07-04T09:44:21.328Z,100553.33
2018-07-04T09:47:16.271Z,100551.81
2018-07-04T09:50:10.375Z,100552.30
2018-07-04T09:53:03.825Z,100549.75
2018-07-04T09:55:57.250Z,100552.01
2018-07-04T09:58:51.059Z,100559.36
2018-07-04T10:01:38.781Z,100556.23
2018-07-04T10:04:32.204Z,100549.86
2018-07-04T10:07:25.908Z,100544.36
2018-07-04T10:10:20.203Z,100548.76
2018-07-04T10:13:17.151Z,100553.88
2018-07-04T10:16:10.721Z,100550.81
2018-07-04T10:19:04.320Z,100545.09
2018-07-04T10:21:58.093Z,100544.34
2018-07-04T10:24:51.746Z,100541.30
2018-07-04T10:27:45.240Z,100538.44
2018-07-04T10:30:38.954Z,100542.80
2018-07-04T10:33:32.519Z,100540.32
2018-07-04T10:36:26.107Z,100538.70
2018-07-04T10:39:19.707Z,100535.09
2018-07-04T10:42:13.558Z,100534.80
2018-07-04T10:45:07.158Z,100535.56
2018-07-04T10:48:00.978Z,100531.16
2018-07-04T10:50:54.906Z,100522.94
2018-07-04T10:53:48.746Z,100521.33
2018-07-04T10:56:42.389Z,100515.27
2018-07-04T10:59:35.933Z,100511.27
2018-07-04T11:02:32.768Z,100511.19
2018-07-04T11:05:27.758Z,100500.60
2018-07-04T11:08:21.554Z,100503.14
2018-07-04T11:11:16.917Z,100505.06
2018-07-04T11:14:05.767Z,100496.86
2018-07-04T11:16:59.652Z,100493.29
2018-07-04T11:19:53.350Z,100493.54
2018-07-04T11:22:49.317Z,100490.81
2018-07-04T11:25:42.912Z,100492.80
2018-07-04T11:28:36.583Z,100494.10
2018-07-04T11:31:31.415Z,100484.77
2018-07-04T11:34:25.313Z,100483.67
2018-07-04T11:37:18.960Z,100491.53
2018-07-04T11:40:12.596Z,100486.56
2018-07-04T11:43:06.127Z,100480.75
2018-07-04T11:45:59.573Z,100475.52
2018-07-04T11:48:28.646Z,100480.95
2018-07-04T11:50:57.452Z,100480.66
2018-07-04T11:53:26.237Z,100475.95
2018-07-04T11:55:55.060Z,100481.44
2018-07-04T11:58:24.056Z,100479.23
2018-07-04T12:00:55.849Z,100481.86
2018-07-04T12:03:26.162Z,100480.01
2018-07-04T12:06:13.648Z,100486.58
2018-07-04T12:08:48.676Z,100485.78
2018-07-04T12:11:17.487Z,100487.03
2018-07-04T12:13:46.333Z,100497.92
2018-07-04T12:16:15.161Z,100486.93
2018-07-04T12:18:43.993Z,100489.62
2018-07-04T12:21:12.815Z,100491.20
2018-07-04T12:23:49.081Z,100494.51
2018-07-04T12:26:17.887Z,100492.53
2018-07-04T12:28:46.693Z,100493.98
2018-07-04T12:31:15.476Z,100503.36
2018-07-04T12:33:44.332Z,100494.33
2018-07-04T12:36:18.861Z,100495.97
2018-07-04T12:38:47.684Z,100493.61
2018-07-04T12:41:16.486Z,100503.86
2018-07-04T12:43:45.301Z,100506.75
2018-07-04T12:46:14.284Z,100509.67
2018-07-04T12:48:43.069Z,100515.46
2018-07-04T12:51:11.953Z,100515.13
2018-07-04T12:53:41.195Z,100520.02
2018-07-04T12:56:28.529Z,100520.97
2018-07-04T12:59:23.372Z,100513.38
2018-07-04T13:02:18.051Z,100521.77
2018-07-04T13:05:08.524Z,100517.61
2018-07-04T13:08:02.210Z,100520.71
2018-07-04T13:10:55.941Z,100519.10
2018-07-04T13:13:49.679Z,100519.39
2018-07-04T13:16:43.385Z,100518.91
2018-07-04T13:19:37.213Z,100518.04
2018-07-04T13:22:31.137Z,100516.19
2018-07-04T13:25:24.969Z,100518.27
2018-07-04T13:28:18.694Z,100513.80
2018-07-04T13:31:12.324Z,100507.78
2018-07-04T13:34:05.955Z,100511.83
2018-07-04T13:36:59.436Z,100514.36
2018-07-04T13:39:53.600Z,100511.20
2018-07-04T13:42:47.505Z,100515.48
2018-07-04T13:45:41.134Z,100516.70
2018-07-04T13:48:34.902Z,100518.20
2018-07-04T13:51:28.620Z,100517.61
2018-07-04T13:54:22.242Z,100516.31
2018-07-04T13:57:15.996Z,100520.53
2018-07-04T14:00:09.565Z,100522.16
2018-07-04T14:03:03.608Z,100525.09
2018-07-04T14:05:57.624Z,100519.34
2018-07-04T14:08:51.587Z,100523.50
2018-07-04T14:11:46.328Z,100522.45
2018-07-04T14:14:40.100Z,100520.19
2018-07-04T14:17:33.786Z,100517.19
2018-07-04T14:20:27.385Z,100512.34
2018-07-04T14:23:21.249Z,100505.33
2018-07-04T14:26:15.721Z,100501.00
2018-07-04T14:29:09.371Z,100499.33
2018-07-04T14:32:03.234Z,100503.56
2018-07-04T14:34:57.128Z,100504.38
2018-07-04T14:37:50.927Z,100502.06
2018-07-04T14:40:52.628Z,100492.41
2018-07-04T14:46:52.735Z,100487.91
2018-07-04T14:49:40.321Z,100486.80
2018-07-04T14:52:33.843Z,100492.02
2018-07-04T14:55:27.571Z,100482.47
2018-07-04T14:58:22.967Z,100487.13
2018-07-04T15:01:18.725Z,100485.84
2018-07-04T15:04:12.812Z,100476.09
2018-07-04T15:07:09.234Z,100418.28
2018-07-04T15:10:04.021Z,100481.80
2018-07-04T15:12:58.005Z,100480.24
2018-07-04T15:15:51.900Z,100477.76
2018-07-04T15:18:45.848Z,100481.70
2018-07-04T15:21:40.498Z,100477.72
2018-07-04T15:24:34.198Z,100476.08
2018-07-04T15:27:27.911Z,100483.47
2018-07-04T15:30:26.998Z,100472.94
2018-07-04T15:37:20.211Z,100467.87
2018-07-04T15:40:14.059Z,100467.87
2018-07-04T15:43:07.727Z,100466.66
2018-07-04T15:46:01.637Z,100458.41
2018-07-04T15:48:55.386Z,100460.18
2018-07-04T15:51:48.923Z,100452.00
2018-07-04T15:54:42.519Z,100455.38
2018-07-04T15:57:36.455Z,100455.09
2018-07-04T16:00:37.623Z,100450.44
2018-07-04T16:03:30.947Z,100440.77
2018-07-04T16:06:24.747Z,100448.51
2018-07-04T16:09:18.340Z,100446.59
2018-07-04T16:12:12.303Z,100447.03
2018-07-04T16:15:05.801Z,100455.27
2018-07-04T16:17:59.563Z,100449.22
2018-07-04T16:20:59.382Z,100456.09
2018-07-04T16:23:47.184Z,100448.52
2018-07-04T16:26:40.802Z,100447.61
2018-07-04T16:32:45.897Z,100442.15
2018-07-04T16:35:45.854Z,100443.17
2018-07-04T16:41:44.267Z,100449.04
2018-07-04T16:44:31.732Z,100444.30
2018-07-04T16:47:25.463Z,100440.26
2018-07-04T16:50:22.036Z,100439.39
2018-07-04T16:53:18.341Z,100440.63
2018-07-04T16:56:14.363Z,100440.89
2018-07-04T16:59:12.429Z,100433.22
2018-07-04T17:02:00.091Z,100437.72
2018-07-04T17:04:53.652Z,100441.28
2018-07-04T17:07:47.248Z,100442.97
2018-07-04T17:10:41.048Z,100442.23
2018-07-04T17:13:34.674Z,100439.25
2018-07-04T17:16:28.400Z,100439.27
2018-07-04T17:19:15.882Z,100435.04
2018-07-04T17:22:09.666Z,100434.82
2018-07-04T17:25:03.197Z,100429.03
2018-07-04T17:27:56.750Z,100426.02
2018-07-04T17:30:52.051Z,100423.66
2018-07-04T17:33:45.414Z,100413.11
2018-07-04T17:36:39.076Z,100412.70
2018-07-04T17:39:26.562Z,100405.97
2018-07-04T17:42:20.149Z,100410.02
2018-07-04T17:45:13.851Z,100399.13
2018-07-04T17:48:07.580Z,100395.38
2018-07-04T17:51:01.342Z,100399.41
2018-07-04T17:53:55.134Z,100396.48
2018-07-04T17:56:43.186Z,100391.36
2018-07-04T17:59:36.576Z,100395.33
2018-07-04T18:02:30.246Z,100397.14
2018-07-04T18:05:23.845Z,100402.73
2018-07-04T18:08:17.240Z,100404.27
2018-07-04T18:11:10.773Z,100408.00
2018-07-04T18:14:04.377Z,100408.52
2018-07-04T18:16:57.901Z,100389.77
2018-07-04T18:19:51.441Z,100407.23
2018-07-04T18:22:45.192Z,100397.06
2018-07-04T18:25:39.100Z,100405.53
2018-07-04T18:28:32.605Z,100401.32
2018-07-04T18:35:23.422Z,100399.34
2018-07-04T18:38:17.014Z,100399.52
2018-07-04T18:41:10.486Z,100399.41
2018-07-04T18:44:04.110Z,100403.32
2018-07-04T18:46:57.673Z,100398.74
2018-07-04T18:49:52.058Z,100396.83
2018-07-04T18:52:45.590Z,100396.70
2018-07-04T18:55:39.380Z,100402.47
2018-07-04T18:58:32.930Z,100406.43
2018-07-04T19:01:26.828Z,100407.14
2018-07-04T19:04:20.035Z,100398.20
2018-07-04T19:07:13.623Z,100409.13
2018-07-04T19:10:01.349Z,100419.25
2018-07-04T19:12:54.978Z,100410.10
2018-07-04T19:15:48.762Z,100417.92
2018-07-04T19:18:42.461Z,100425.36
2018-07-04T19:21:35.968Z,100417.59
2018-07-04T19:24:31.708Z,100414.40
2018-07-04T19:27:30.884Z,100415.41
2018-07-04T19:30:27.487Z,100413.43
2018-07-04T19:33:17.669Z,100416.11
2018-07-04T19:36:11.604Z,100415.52
2018-07-04T19:39:05.982Z,100413.66
2018-07-04T19:41:59.730Z,100417.05
2018-07-04T19:44:53.595Z,100427.20
2018-07-04T19:47:50.209Z,100431.30
2018-07-04T19:50:43.943Z,100441.81
2018-07-04T19:53:37.424Z,100446.31
2018-07-04T19:56:31.183Z,100452.31
2018-07-04T19:59:24.697Z,100458.08
2018-07-04T20:02:18.237Z,100459.51
2018-07-04T20:05:12.382Z,100461.94
2018-07-04T20:08:06.131Z,100453.80
2018-07-04T20:11:01.472Z,100457.04
2018-07-04T20:13:55.705Z,100459.46
2018-07-04T20:16:43.261Z,100455.66
2018-07-04T20:19:36.798Z,100459.03
2018-07-04T20:22:30.321Z,100460.23
2018-07-04T20:25:24.019Z,100459.73
2018-07-04T20:28:18.066Z,100466.74
2018-07-04T20:31:12.854Z,100457.41
2018-07-04T20:34:06.269Z,100450.72
2018-07-04T20:37:00.157Z,100450.56
2018-07-04T20:39:53.764Z,100445.20
2018-07-04T20:42:47.454Z,100452.26
2018-07-04T20:45:42.496Z,100451.47
2018-07-04T20:48:37.973Z,100444.50
2018-07-04T20:51:33.328Z,100445.64
2018-07-04T20:54:28.645Z,100435.11
2018-07-04T20:57:24.184Z,100431.73
2018-07-04T21:00:19.083Z,100422.40
2018-07-04T21:03:12.652Z,100416.55
2018-07-04T21:06:06.263Z,100422.76
2018-07-04T21:08:59.751Z,100417.46
2018-07-04T21:12:00.125Z,100416.46
2018-07-04T21:14:54.236Z,100409.83
2018-07-04T21:17:49.252Z,100408.67
2018-07-04T21:20:44.668Z,100401.28
2018-07-04T21:23:39.214Z,100401.33
2018-07-04T21:26:35.149Z,100406.77
2018-07-04T21:29:30.863Z,100419.47
2018-07-04T21:32:24.556Z,100417.34
2018-07-04T21:35:19.046Z,100422.40
2018-07-04T21:38:14.228Z,100425.61
2018-07-04T21:41:10.185Z,100435.02
2018-07-04T21:44:05.166Z,100441.20
2018-07-04T21:46:58.893Z,100451.45
2018-07-04T21:49:52.491Z,100452.09
2018-07-04T21:52:48.228Z,100450.78
2018-07-04T21:55:43.419Z,100460.65
2018-07-04T21:58:38.910Z,100459.16
2018-07-04T22:01:33.943Z,100464.53
2018-07-04T22:04:29.090Z,100468.20
2018-07-04T22:07:24.194Z,100477.88
2018-07-04T22:10:20.392Z,100483.42
2018-07-04T22:13:15.841Z,100488.61
2018-07-04T22:16:11.436Z,100492.62
2018-07-04T22:19:07.134Z,100485.28
2018-07-04T22:22:02.793Z,100484.44
2018-07-04T22:24:58.479Z,100477.24
2018-07-04T22:27:54.775Z,100475.91
2018-07-04T22:30:48.356Z,100475.23
2018-07-04T22:33:41.987Z,100479.94
2018-07-04T22:36:35.888Z,100486.61
2018-07-04T22:39:30.100Z,100482.92
2018-07-04T22:42:25.508Z,100490.12
2018-07-04T22:45:21.255Z,100493.79
2018-07-04T22:48:14.880Z,100492.94
2018-07-04T22:51:09.532Z,100494.05
2018-07-04T22:54:05.318Z,100497.27
2018-07-04T22:57:00.807Z,100473.17
2018-07-04T22:59:56.286Z,100477.25
2018-07-04T23:02:51.810Z,100485.27
2018-07-04T23:05:45.366Z,100487.09
2018-07-04T23:08:41.139Z,100481.42
2018-07-04T23:11:36.432Z,100474.09
2018-07-04T23:14:25.946Z,100478.58
2018-07-04T23:17:19.626Z,100477.42
2018-07-04T23:20:14.982Z,100472.73
2018-07-04T23:23:10.681Z,100464.73
2018-07-04T23:26:04.325Z,100469.90
2018-07-04T23:29:00.209Z,100469.23
2018-07-04T23:31:55.685Z,100467.58
2018-07-04T23:34:51.381Z,100464.57
2018-07-04T23:37:46.739Z,100473.73
2018-07-04T23:40:34.955Z,100463.70
2018-07-04T23:43:30.606Z,100456.19
2018-07-04T23:46:26.365Z,100468.20
2018-07-04T23:49:22.671Z,100470.89
2018-07-04T23:52:18.258Z,100472.17
2018-07-04T23:55:07.846Z,100470.36
2018-07-04T23:58:03.528Z,100464.00
